»·PEaware :: ASA718 KSEA-KSLC

ASA718 :: KSEA-KSLC

FLIGHT INFORMATION

Flight Status: Arrived
Operator:
Alaska Airlines
More flights by this operator :: More flights under this callsign
Pilot: Anonymous 11783 (11783)
Aircraft: BOEING 737-900
(B739)
More flights by this aircraft type
Origin: KSEA Seattle-Tacoma Intl
United States
Destination: KSLC Salt Lake City Intl
United States
More flights between these airports :: More routes between these airports
Route: SUMMA1 SUMMA J54 BKE BYI SKEES5
File this flight plan on PilotEdge
Remarks:
Altitude:
(Current/Filed)
35,000ft
Speed:
(Current/Filed)
450kts
Departed: 02-Jan-18 01:04 PM
Arrived: 02-Jan-18 02:39 PM
Distance/Time
Traveled:
597nm/1:35
Distance/Time
To Go:
Arrived

Flight Plot

Page will automatically refresh every two minutes.

Flight plan parsing failed; only flown route is shown


Map Options




Map Legend


Flown Route
Filed Route
Departure Airport
Arrival Airport
Navaid (VOR, NDB)
Fix

Horizontal Profiles

Position Reports

Time Latitude Longitude Heading Altitude Ground
Speed
02-Jan-18 12:41 47.449251 -122.302212 232 440ft 0kts
02-Jan-18 12:42 47.449251 -122.302212 232 440ft 0kts
02-Jan-18 12:43 47.449251 -122.302212 232 441ft 0kts
02-Jan-18 12:44 47.449251 -122.302212 232 441ft 0kts
02-Jan-18 12:45 47.449251 -122.302212 232 441ft 0kts
02-Jan-18 12:46 47.449251 -122.302212 232 441ft 0kts
02-Jan-18 12:47 47.449251 -122.302212 232 441ft 0kts
02-Jan-18 12:48 47.449251 -122.302212 232 441ft 0kts
02-Jan-18 12:49 47.449251 -122.302212 232 441ft 0kts
02-Jan-18 12:50 47.449251 -122.302212 232 441ft 0kts
02-Jan-18 12:51 47.449251 -122.302212 232 441ft 0kts
02-Jan-18 12:52 47.449251 -122.302212 232 441ft 0kts
02-Jan-18 12:53 47.449251 -122.302212 232 441ft 0kts
02-Jan-18 12:54 47.449251 -122.302212 232 441ft 0kts
02-Jan-18 12:55 47.449251 -122.302212 232 441ft 0kts
02-Jan-18 12:56 47.449251 -122.302212 232 441ft 0kts
02-Jan-18 12:57 47.449251 -122.302212 232 441ft 0kts
02-Jan-18 12:58 47.449251 -122.302212 232 441ft 0kts
02-Jan-18 12:59 47.449483 -122.301575 261 441ft 2kts
02-Jan-18 13:00 47.449374 -122.301067 309 441ft 0kts
02-Jan-18 13:01 47.449374 -122.301067 309 441ft 0kts
02-Jan-18 13:02 47.449860 -122.302189 279 441ft 13kts
02-Jan-18 13:03 47.450065 -122.304037 283 441ft 0kts
02-Jan-18 13:04 47.450116 -122.305180 270 441ft 13kts
02-Jan-18 13:05 47.446671 -122.306300 180 441ft 15kts
02-Jan-18 13:06 47.441428 -122.306355 179 441ft 20kts
02-Jan-18 13:07 47.435918 -122.305901 149 441ft 12kts
02-Jan-18 13:08 47.432144 -122.305982 214 441ft 13kts
02-Jan-18 13:09 47.433305 -122.308063 359 441ft 36kts
02-Jan-18 13:10 47.461907 -122.307896 357 1414ft 156kts
02-Jan-18 13:11 47.526406 -122.308958 0 3707ft 235kts
02-Jan-18 13:12 47.583772 -122.302655 29 5876ft 272kts
02-Jan-18 13:13 47.613544 -122.202960 85 9090ft 283kts
02-Jan-18 13:14 47.597634 -122.091708 149 11316ft 318kts
02-Jan-18 13:15 47.504261 -122.081222 181 13515ft 353kts
02-Jan-18 13:16 47.386878 -122.082827 181 16159ft 366kts
02-Jan-18 13:17 47.300768 -122.082705 181 18383ft 378kts
02-Jan-18 13:18 47.193163 -122.080516 181 20620ft 395kts
02-Jan-18 13:19 47.080867 -122.079074 184 22566ft 409kts
02-Jan-18 13:20 46.965175 -122.081778 184 24265ft 422kts
02-Jan-18 13:21 46.845883 -122.083466 184 25808ft 433kts
02-Jan-18 13:22 46.725756 -122.046542 164 27128ft 454kts
02-Jan-18 13:23 46.613059 -121.960812 136 28169ft 478kts
02-Jan-18 13:24 46.541116 -121.794656 121 29219ft 490kts
02-Jan-18 13:25 46.472988 -121.622845 121 30376ft 491kts
02-Jan-18 13:26 46.403995 -121.451377 122 31424ft 491kts
02-Jan-18 13:27 46.334885 -121.280922 122 32363ft 491kts
02-Jan-18 13:28 46.265813 -121.110256 122 33191ft 493kts
02-Jan-18 13:29 46.196281 -120.939108 122 33945ft 493kts
02-Jan-18 13:30 46.126310 -120.768500 122 34576ft 495kts
02-Jan-18 13:31 46.055623 -120.597340 122 35213ft 496kts
02-Jan-18 13:32 45.984719 -120.426726 122 35680ft 499kts
02-Jan-18 13:33 45.913247 -120.255790 122 35697ft 498kts
02-Jan-18 13:34 45.841677 -120.084784 122 35699ft 499kts
02-Jan-18 13:35 45.769606 -119.914949 123 35679ft 499kts
02-Jan-18 13:36 45.697263 -119.744834 123 35678ft 499kts
02-Jan-18 13:37 45.624503 -119.576389 123 35667ft 498kts
02-Jan-18 13:38 45.551552 -119.408265 123 35656ft 498kts
02-Jan-18 13:39 45.478851 -119.239643 122 35661ft 498kts
02-Jan-18 13:40 45.405942 -119.072079 122 35640ft 499kts
02-Jan-18 13:41 45.332514 -118.904632 123 35624ft 499kts
02-Jan-18 13:42 45.258533 -118.736992 123 35570ft 500kts
02-Jan-18 13:43 45.184686 -118.570649 123 35523ft 499kts
02-Jan-18 13:44 45.110171 -118.403778 123 35518ft 500kts
02-Jan-18 13:45 45.035674 -118.237906 123 35530ft 500kts
02-Jan-18 13:46 44.961204 -118.072248 123 35539ft 500kts
02-Jan-18 13:47 44.885707 -117.906543 123 35549ft 503kts
02-Jan-18 13:48 44.807458 -117.743742 128 35550ft 502kts
02-Jan-18 13:49 44.722437 -117.588208 128 35549ft 502kts
02-Jan-18 13:50 44.637298 -117.432213 128 35554ft 502kts
02-Jan-18 13:51 44.552954 -117.276341 127 35565ft 502kts
02-Jan-18 13:52 44.467953 -117.120570 127 35580ft 502kts
02-Jan-18 13:53 44.382779 -116.965534 127 35600ft 503kts
02-Jan-18 13:54 44.297295 -116.810832 127 35618ft 504kts
02-Jan-18 13:55 44.211207 -116.655883 127 35620ft 504kts
02-Jan-18 13:56 44.124952 -116.501470 127 35613ft 505kts
02-Jan-18 13:57 44.038488 -116.347502 127 35588ft 506kts
02-Jan-18 13:58 43.951359 -116.193175 127 35599ft 506kts
02-Jan-18 13:59 43.864320 -116.039822 127 35600ft 507kts
02-Jan-18 14:00 43.776773 -115.886386 128 35588ft 506kts
02-Jan-18 14:01 43.689312 -115.733903 128 35577ft 507kts
02-Jan-18 14:02 43.601619 -115.581815 128 35574ft 507kts
02-Jan-18 14:03 43.513258 -115.429364 128 35570ft 508kts
02-Jan-18 14:04 43.424933 -115.277766 128 35575ft 508kts
02-Jan-18 14:05 43.336433 -115.126654 128 35571ft 508kts
02-Jan-18 14:06 43.247369 -114.975358 128 35551ft 509kts
02-Jan-18 14:07 43.158231 -114.824715 128 35540ft 509kts
02-Jan-18 14:08 43.068501 -114.673843 129 35540ft 510kts
02-Jan-18 14:09 42.978787 -114.523766 129 35540ft 510kts
02-Jan-18 14:10 42.888701 -114.373827 129 35531ft 512kts
02-Jan-18 14:11 42.798082 -114.223759 129 35528ft 512kts
02-Jan-18 14:12 42.707559 -114.074086 129 35526ft 513kts
02-Jan-18 14:13 42.616134 -113.924556 129 35523ft 514kts
02-Jan-18 14:14 42.519403 -113.782338 137 35520ft 513kts
02-Jan-18 14:15 42.417418 -113.647308 136 35521ft 513kts
02-Jan-18 14:16 42.315271 -113.511674 136 35527ft 513kts
02-Jan-18 14:17 42.214563 -113.378493 136 34547ft 498kts
02-Jan-18 14:18 42.114692 -113.247203 135 31812ft 495kts
02-Jan-18 14:19 42.017826 -113.120074 134 29753ft 476kts
02-Jan-18 14:20 41.924781 -112.997960 133 27715ft 459kts
02-Jan-18 14:21 41.835395 -112.881121 133 25536ft 435kts
02-Jan-18 14:22 41.750014 -112.770616 133 23106ft 421kts
02-Jan-18 14:23 41.667688 -112.664256 133 21234ft 403kts
02-Jan-18 14:24 41.588423 -112.562317 133 19360ft 386kts
02-Jan-18 14:25 41.510133 -112.468641 143 17484ft 373kts
02-Jan-18 14:26 41.422145 -112.399923 151 15556ft 364kts
02-Jan-18 14:27 41.333263 -112.337765 151 14352ft 360kts
02-Jan-18 14:28 41.245524 -112.276017 151 13187ft 353kts
02-Jan-18 14:29 41.160513 -112.211896 149 12539ft 349kts
02-Jan-18 14:30 41.076439 -112.150923 158 11998ft 347kts
02-Jan-18 14:31 40.982526 -112.126671 171 11453ft 342kts
02-Jan-18 14:32 40.889034 -112.107445 173 11003ft 336kts
02-Jan-18 14:33 40.795832 -112.096707 175 11000ft 336kts
02-Jan-18 14:34 40.702211 -112.086141 175 11000ft 337kts
02-Jan-18 14:35 40.611074 -112.076289 175 10461ft 307kts
02-Jan-18 14:36 40.529908 -112.067896 175 9280ft 284kts
02-Jan-18 14:37 40.453515 -112.052509 141 8973ft 281kts
02-Jan-18 14:38 40.440743 -111.956649 66 8318ft 277kts
02-Jan-18 14:39 40.509354 -111.937199 350 8007ft 279kts
02-Jan-18 14:40 40.583272 -111.950824 354 7875ft 239kts
02-Jan-18 14:41 40.642948 -111.957804 355 6785ft 194kts
02-Jan-18 14:42 40.691088 -111.963368 355 5849ft 157kts
02-Jan-18 14:43 40.733352 -111.968244 356 5007ft 148kts
02-Jan-18 14:44 40.773661 -111.972965 354 4281ft 143kts
02-Jan-18 14:45 40.792019 -111.976047 316 4235ft 8kts
02-Jan-18 14:46 40.790723 -111.977214 175 4235ft 14kts
02-Jan-18 14:47 40.786251 -111.976713 175 4235ft 19kts
02-Jan-18 14:48 40.785400 -111.977621 255 4235ft 0kts

Navigation Log

Ident Type
Flight plan parsing failed, navigation log unavailable